createdAt,value
2023-02-09T00:01:32.193Z,3.45
2023-02-09T00:04:02.459Z,3.36
2023-02-09T00:06:36.984Z,3.36
2023-02-09T00:09:03.589Z,3.36
2023-02-09T00:11:49.406Z,3.34
2023-02-09T00:14:19.212Z,3.29
2023-02-09T00:16:48.177Z,3.26
2023-02-09T00:19:14.928Z,3.23
2023-02-09T00:21:41.703Z,3.22
2023-02-09T00:24:10.731Z,3.23
2023-02-09T00:26:37.861Z,3.21
2023-02-09T00:29:04.516Z,3.21
2023-02-09T00:31:30.999Z,3.20
2023-02-09T00:33:57.528Z,3.16
2023-02-09T00:36:24.024Z,3.15
2023-02-09T00:38:50.471Z,3.12
2023-02-09T00:41:17.465Z,3.09
2023-02-09T00:43:44.171Z,3.05
2023-02-09T00:46:10.651Z,2.98
2023-02-09T00:48:37.147Z,2.97
2023-02-09T00:51:03.827Z,2.95
2023-02-09T00:53:30.286Z,2.93
2023-02-09T00:55:56.755Z,2.93
2023-02-09T00:58:23.215Z,2.89
2023-02-09T01:00:49.979Z,2.84
2023-02-09T01:03:16.692Z,2.77
2023-02-09T01:05:43.400Z,2.73
2023-02-09T01:08:10.181Z,2.67
2023-02-09T01:10:38.358Z,2.68
2023-02-09T01:13:04.875Z,2.66
2023-02-09T01:15:31.370Z,2.66
2023-02-09T01:17:58.687Z,2.64
2023-02-09T01:20:25.239Z,2.64
2023-02-09T01:22:52.612Z,2.67
2023-02-09T01:25:19.151Z,2.68
2023-02-09T01:27:45.725Z,2.66
2023-02-09T01:30:12.770Z,2.66
2023-02-09T01:32:42.472Z,2.63
2023-02-09T01:35:09.262Z,2.61
2023-02-09T01:37:36.174Z,2.54
2023-02-09T01:40:03.964Z,2.61
2023-02-09T01:42:30.605Z,2.58
2023-02-09T01:45:27.695Z,2.58
2023-02-09T01:48:01.484Z,2.57
2023-02-09T01:50:33.077Z,2.58
2023-02-09T01:53:00.410Z,2.52
2023-02-09T01:55:29.859Z,2.47
2023-02-09T01:58:09.375Z,2.44
2023-02-09T02:00:36.435Z,2.32
2023-02-09T02:03:07.812Z,2.37
2023-02-09T02:05:37.370Z,2.33
2023-02-09T02:08:22.903Z,2.31
2023-02-09T02:10:49.409Z,2.27
2023-02-09T02:13:15.898Z,2.25
2023-02-09T02:16:03.154Z,2.20
2023-02-09T02:18:57.492Z,2.19
2023-02-09T02:21:52.825Z,2.16
2023-02-09T02:24:55.994Z,2.16
2023-02-09T02:27:44.681Z,2.18
2023-02-09T02:30:46.848Z,2.20
2023-02-09T02:33:35.139Z,2.20
2023-02-09T02:36:16.846Z,2.16
2023-02-09T02:39:01.270Z,2.16
2023-02-09T02:41:27.653Z,2.13
2023-02-09T02:44:05.741Z,2.15
2023-02-09T02:46:53.115Z,2.17
2023-02-09T02:49:41.641Z,2.17
2023-02-09T02:52:10.117Z,2.17
2023-02-09T02:54:49.751Z,2.12
2023-02-09T02:57:22.780Z,2.12
2023-02-09T02:59:57.171Z,2.14
2023-02-09T03:02:30.929Z,2.09
2023-02-09T03:05:00.021Z,2.10
2023-02-09T03:07:26.585Z,2.09
2023-02-09T03:09:56.065Z,2.07
2023-02-09T03:12:51.370Z,2.03
2023-02-09T03:15:43.897Z,1.88
2023-02-09T03:18:31.376Z,1.94
2023-02-09T03:21:11.470Z,1.84
2023-02-09T03:23:52.913Z,1.87
2023-02-09T03:26:25.784Z,1.88
2023-02-09T03:28:56.774Z,1.87
2023-02-09T03:31:26.433Z,1.84
2023-02-09T03:33:53.018Z,1.84
2023-02-09T03:36:20.760Z,1.80
2023-02-09T03:38:47.205Z,1.77
2023-02-09T03:41:13.658Z,1.76
2023-02-09T03:43:58.744Z,1.73
2023-02-09T03:46:25.233Z,1.74
2023-02-09T03:48:52.241Z,1.76
2023-02-09T03:51:18.652Z,1.71
2023-02-09T03:53:47.321Z,1.73
2023-02-09T03:56:13.883Z,1.68
2023-02-09T03:58:40.282Z,1.73
2023-02-09T04:01:09.355Z,1.72
2023-02-09T04:03:37.631Z,1.71
2023-02-09T04:06:04.312Z,1.67
2023-02-09T04:08:30.871Z,1.63
2023-02-09T04:10:58.086Z,1.65
2023-02-09T04:13:25.173Z,1.64
2023-02-09T04:15:52.235Z,1.63
2023-02-09T04:18:19.009Z,1.60
2023-02-09T04:20:46.107Z,1.58
2023-02-09T04:23:12.897Z,1.60
2023-02-09T04:25:39.449Z,1.61
2023-02-09T04:28:05.883Z,1.64
2023-02-09T04:30:32.443Z,1.66
2023-02-09T04:32:58.940Z,1.66
2023-02-09T04:35:25.363Z,1.69
2023-02-09T04:37:51.912Z,1.65
2023-02-09T04:40:18.490Z,1.65
2023-02-09T04:42:46.311Z,1.66
2023-02-09T04:45:13.102Z,1.69
2023-02-09T04:47:39.551Z,1.70
2023-02-09T04:50:06.350Z,1.71
2023-02-09T04:52:32.903Z,1.71
2023-02-09T04:54:59.313Z,1.72
2023-02-09T04:57:44.337Z,1.75
2023-02-09T05:00:11.378Z,1.76
2023-02-09T05:02:37.892Z,1.75
2023-02-09T05:05:04.512Z,1.74
2023-02-09T05:07:30.931Z,1.76
2023-02-09T05:09:58.549Z,1.76
2023-02-09T05:12:25.080Z,1.76
2023-02-09T05:14:51.562Z,1.74
2023-02-09T05:17:21.000Z,1.75
2023-02-09T05:19:48.777Z,1.77
2023-02-09T05:22:15.341Z,1.79
2023-02-09T05:24:41.819Z,1.80
2023-02-09T05:27:08.266Z,1.80
2023-02-09T05:29:34.891Z,1.82
2023-02-09T05:32:01.344Z,1.82
2023-02-09T05:34:27.839Z,1.83
2023-02-09T05:36:54.340Z,1.85
2023-02-09T05:39:20.910Z,1.88
2023-02-09T05:42:05.869Z,1.86
2023-02-09T05:44:34.336Z,1.90
2023-02-09T05:47:00.830Z,1.92
2023-02-09T05:49:27.378Z,1.91
2023-02-09T05:51:53.837Z,1.91
2023-02-09T05:54:22.355Z,1.92
2023-02-09T05:56:50.594Z,1.92
2023-02-09T05:59:17.197Z,1.94
2023-02-09T06:01:43.653Z,1.93
2023-02-09T06:04:10.240Z,1.92
2023-02-09T06:06:37.322Z,1.93
2023-02-09T06:09:04.287Z,1.94
2023-02-09T06:11:30.870Z,1.94
2023-02-09T06:13:57.344Z,1.91
2023-02-09T06:16:23.899Z,1.90
2023-02-09T06:18:50.367Z,1.91
2023-02-09T06:21:16.833Z,1.89
2023-02-09T06:23:43.417Z,1.89
2023-02-09T06:26:12.260Z,1.88
2023-02-09T06:28:39.013Z,1.85
2023-02-09T06:31:06.704Z,1.82
2023-02-09T06:33:34.188Z,1.84
2023-02-09T06:36:00.744Z,1.84
2023-02-09T06:38:27.285Z,1.81
2023-02-09T06:40:53.694Z,1.79
2023-02-09T06:43:20.167Z,1.78
2023-02-09T06:45:46.643Z,1.77
2023-02-09T06:48:13.227Z,1.76
2023-02-09T06:50:40.369Z,1.75
2023-02-09T06:53:06.967Z,1.74
2023-02-09T06:55:34.043Z,1.72
2023-02-09T06:58:00.760Z,1.71
2023-02-09T07:00:27.624Z,1.71
2023-02-09T07:02:54.693Z,1.73
2023-02-09T07:05:21.436Z,1.76
2023-02-09T07:07:48.102Z,1.76
2023-02-09T07:10:16.843Z,1.80
2023-02-09T07:12:43.971Z,1.80
2023-02-09T07:15:12.381Z,1.78
2023-02-09T07:17:39.355Z,1.75
2023-02-09T07:20:06.549Z,1.69
2023-02-09T07:22:33.818Z,1.64
2023-02-09T07:25:00.264Z,1.71
2023-02-09T07:27:27.807Z,1.73
2023-02-09T07:29:54.457Z,1.74
2023-02-09T07:32:23.826Z,1.72
2023-02-09T07:34:50.242Z,1.75
2023-02-09T07:37:16.727Z,1.79
2023-02-09T07:39:44.325Z,1.82
2023-02-09T07:42:10.812Z,1.86
2023-02-09T07:44:37.283Z,1.86
2023-02-09T07:47:03.832Z,1.89
2023-02-09T07:49:30.331Z,1.92
2023-02-09T07:51:56.737Z,1.90
2023-02-09T07:54:23.308Z,1.99
2023-02-09T07:56:49.882Z,1.98
2023-02-09T07:59:16.427Z,2.01
2023-02-09T08:01:42.848Z,2.01
2023-02-09T08:04:09.250Z,2.06
2023-02-09T08:06:43.428Z,2.11
2023-02-09T08:09:11.501Z,2.17
2023-02-09T08:11:48.072Z,2.20
2023-02-09T08:14:23.037Z,2.23
2023-02-09T08:16:51.604Z,2.26
2023-02-09T08:19:23.978Z,2.31
2023-02-09T08:21:53.679Z,2.37
2023-02-09T08:24:21.490Z,2.39
2023-02-09T08:26:48.089Z,2.45
2023-02-09T08:29:14.527Z,2.50
2023-02-09T08:31:41.115Z,2.57
2023-02-09T08:34:07.585Z,2.56
2023-02-09T08:36:36.581Z,2.59
2023-02-09T08:39:05.290Z,2.64
2023-02-09T08:41:31.693Z,2.72
2023-02-09T08:43:59.555Z,2.77
2023-02-09T08:46:26.224Z,2.79
2023-02-09T08:48:52.740Z,2.86
2023-02-09T08:51:19.257Z,2.93
2023-02-09T08:53:52.134Z,2.98
2023-02-09T08:56:20.380Z,2.98
2023-02-09T08:58:46.959Z,3.04
2023-02-09T09:01:13.536Z,3.08
2023-02-09T09:03:42.207Z,3.12
2023-02-09T09:06:10.565Z,3.15
2023-02-09T09:08:38.506Z,3.20
2023-02-09T09:11:06.879Z,3.32
2023-02-09T09:13:33.620Z,3.41
2023-02-09T09:16:00.110Z,3.53
2023-02-09T09:18:26.761Z,3.66
2023-02-09T09:20:53.466Z,3.78
2023-02-09T09:23:21.187Z,3.91
2023-02-09T09:25:48.181Z,4.03
2023-02-09T09:28:15.685Z,4.17
2023-02-09T09:30:42.312Z,4.45
2023-02-09T09:33:08.776Z,4.73
2023-02-09T09:35:35.713Z,4.87
2023-02-09T09:38:04.762Z,5.21
2023-02-09T09:40:43.088Z,5.54
2023-02-09T09:43:33.859Z,5.78
2023-02-09T09:46:01.704Z,5.95
2023-02-09T09:48:50.517Z,6.11
2023-02-09T09:51:37.823Z,6.25
2023-02-09T09:54:12.856Z,6.32
2023-02-09T09:56:41.102Z,6.47
2023-02-09T09:59:16.720Z,6.48
2023-02-09T10:01:43.538Z,6.54
2023-02-09T10:04:14.281Z,6.66
2023-02-09T10:06:43.912Z,6.68
2023-02-09T10:09:27.848Z,6.67
2023-02-09T10:12:21.814Z,6.67
2023-02-09T10:14:48.185Z,6.71
2023-02-09T10:17:14.650Z,6.73
2023-02-09T10:19:41.218Z,6.71
2023-02-09T10:22:20.284Z,6.64
2023-02-09T10:24:46.834Z,6.64
2023-02-09T10:27:30.866Z,6.64
2023-02-09T10:30:19.142Z,6.59
2023-02-09T10:32:45.710Z,6.60
2023-02-09T10:35:44.447Z,6.66
2023-02-09T10:38:18.018Z,6.65
2023-02-09T10:40:47.493Z,6.71
2023-02-09T10:43:29.105Z,6.73
2023-02-09T10:45:59.102Z,6.72
2023-02-09T10:48:27.414Z,6.73
2023-02-09T10:51:35.106Z,6.75
2023-02-09T10:54:07.272Z,6.86
2023-02-09T10:56:45.808Z,6.99
2023-02-09T10:59:19.532Z,7.23
2023-02-09T11:01:55.384Z,7.56
2023-02-09T11:04:24.791Z,7.96
2023-02-09T11:06:56.840Z,8.27
2023-02-09T11:09:33.441Z,8.56
2023-02-09T11:12:00.879Z,8.76
2023-02-09T11:14:27.675Z,9.08
2023-02-09T11:17:14.862Z,9.35
2023-02-09T11:19:57.969Z,9.65
2023-02-09T11:22:50.667Z,9.95
2023-02-09T11:25:26.420Z,10.08
2023-02-09T11:28:30.313Z,10.25
2023-02-09T11:31:21.837Z,10.47
2023-02-09T11:34:06.756Z,10.55
2023-02-09T11:36:40.138Z,10.42
2023-02-09T11:39:38.304Z,10.14
2023-02-09T11:42:35.550Z,9.90
2023-02-09T11:45:19.466Z,9.68
2023-02-09T11:47:54.608Z,9.50
2023-02-09T11:50:28.590Z,9.31
2023-02-09T11:52:59.549Z,9.16
2023-02-09T11:55:38.389Z,9.17
2023-02-09T11:58:29.147Z,9.27
2023-02-09T12:01:15.191Z,9.41
2023-02-09T12:03:56.905Z,9.53
2023-02-09T12:06:24.748Z,9.71
2023-02-09T12:09:10.008Z,9.85
2023-02-09T12:11:49.325Z,9.88
2023-02-09T12:14:31.779Z,9.96
2023-02-09T12:17:05.057Z,9.89
2023-02-09T12:19:36.277Z,9.72
2023-02-09T12:22:33.568Z,9.83
2023-02-09T12:25:35.692Z,9.99
2023-02-09T12:28:11.127Z,10.05
2023-02-09T12:30:40.637Z,10.20
2023-02-09T12:33:29.360Z,10.37
2023-02-09T12:36:08.020Z,10.43
2023-02-09T12:39:07.101Z,10.45
2023-02-09T12:41:36.627Z,10.35
2023-02-09T12:44:12.137Z,10.26
2023-02-09T12:46:44.529Z,10.18
2023-02-09T12:49:14.119Z,10.08
2023-02-09T12:51:46.591Z,9.92
2023-02-09T12:54:42.594Z,9.72
2023-02-09T12:57:15.324Z,9.46
2023-02-09T13:00:04.512Z,9.34
2023-02-09T13:02:37.188Z,9.22
2023-02-09T13:05:19.285Z,9.15
2023-02-09T13:08:10.901Z,9.10
2023-02-09T13:10:59.038Z,9.01
2023-02-09T13:13:58.242Z,8.90
2023-02-09T13:16:24.675Z,8.83
2023-02-09T13:19:09.838Z,8.72
2023-02-09T13:22:13.765Z,8.56
2023-02-09T13:24:56.570Z,8.43
2023-02-09T13:27:24.527Z,8.37
2023-02-09T13:29:54.147Z,8.31
2023-02-09T13:32:26.356Z,8.28
2023-02-09T13:34:52.731Z,8.21
2023-02-09T13:37:40.354Z,8.11
2023-02-09T13:40:23.736Z,8.01
2023-02-09T13:42:54.161Z,7.98
2023-02-09T13:45:21.233Z,7.97
2023-02-09T13:47:48.449Z,7.95
2023-02-09T13:50:18.050Z,7.82
2023-02-09T13:52:44.698Z,7.78
2023-02-09T13:55:27.092Z,7.79
2023-02-09T13:57:59.005Z,7.80
2023-02-09T14:00:30.288Z,7.78
2023-02-09T14:03:12.377Z,7.76
2023-02-09T14:06:03.648Z,7.70
2023-02-09T14:08:32.707Z,7.68
2023-02-09T14:11:03.844Z,7.70
2023-02-09T14:14:01.871Z,7.77
2023-02-09T14:16:28.553Z,7.71
2023-02-09T14:18:57.010Z,7.65
2023-02-09T14:21:32.399Z,7.61
2023-02-09T14:24:14.825Z,7.59
2023-02-09T14:26:46.101Z,7.51
2023-02-09T14:29:35.421Z,7.44
2023-02-09T14:32:31.986Z,7.42
2023-02-09T14:35:08.503Z,7.41
2023-02-09T14:37:37.135Z,7.42
2023-02-09T14:40:04.596Z,7.44
2023-02-09T14:42:33.039Z,7.48
2023-02-09T14:45:25.432Z,7.53
2023-02-09T14:47:52.006Z,7.53
2023-02-09T14:50:23.994Z,7.51
2023-02-09T14:52:54.431Z,7.49
2023-02-09T14:55:29.758Z,7.43
2023-02-09T14:57:56.430Z,7.46
2023-02-09T15:00:25.456Z,7.47
2023-02-09T15:02:53.341Z,7.51
2023-02-09T15:05:21.997Z,7.50
2023-02-09T15:07:53.093Z,7.49
2023-02-09T15:10:29.020Z,7.45
2023-02-09T15:12:59.595Z,7.39
2023-02-09T15:15:26.209Z,7.35
2023-02-09T15:17:55.352Z,7.32
2023-02-09T15:20:26.191Z,7.34
2023-02-09T15:22:54.483Z,7.37
2023-02-09T15:25:22.401Z,7.34
2023-02-09T15:27:52.503Z,7.22
2023-02-09T15:30:32.560Z,7.31
2023-02-09T15:33:02.221Z,7.29
2023-02-09T15:35:28.808Z,7.25
2023-02-09T15:37:57.525Z,7.29
2023-02-09T15:41:01.854Z,7.29
2023-02-09T15:43:47.889Z,7.27
2023-02-09T15:46:33.946Z,7.26
2023-02-09T15:49:00.590Z,7.25
2023-02-09T15:51:33.942Z,7.22
2023-02-09T15:54:03.323Z,7.20
2023-02-09T15:56:30.123Z,7.15
2023-02-09T15:59:03.486Z,7.17
2023-02-09T16:01:34.114Z,7.13
2023-02-09T16:04:14.006Z,7.14
2023-02-09T16:06:49.515Z,7.12
2023-02-09T16:09:29.297Z,7.05
2023-02-09T16:11:55.891Z,7.01
2023-02-09T16:14:24.287Z,6.96
2023-02-09T16:16:51.027Z,6.88
2023-02-09T16:19:18.141Z,6.84
2023-02-09T16:21:48.783Z,6.83
2023-02-09T16:24:26.302Z,6.87
2023-02-09T16:26:53.170Z,6.99
2023-02-09T16:29:19.807Z,7.03
2023-02-09T16:31:46.338Z,7.02
2023-02-09T16:34:15.538Z,7.06
2023-02-09T16:36:42.622Z,7.04
2023-02-09T16:39:22.984Z,7.05
2023-02-09T16:41:53.492Z,7.03
2023-02-09T16:44:23.993Z,7.02
2023-02-09T16:46:54.016Z,6.98
2023-02-09T16:49:43.741Z,7.00
2023-02-09T16:52:19.463Z,7.00
2023-02-09T16:54:48.835Z,7.01
2023-02-09T16:57:17.779Z,7.03
2023-02-09T16:59:44.831Z,7.04
2023-02-09T17:02:37.019Z,7.02
2023-02-09T17:05:17.252Z,7.02
2023-02-09T17:07:54.079Z,6.95
2023-02-09T17:10:25.063Z,6.96
2023-02-09T17:12:53.486Z,6.98
2023-02-09T17:15:30.017Z,6.94
2023-02-09T17:18:04.240Z,6.90
2023-02-09T17:20:38.656Z,6.89
2023-02-09T17:23:05.697Z,6.82
2023-02-09T17:25:32.417Z,6.79
2023-02-09T17:27:59.196Z,6.78
2023-02-09T17:30:25.798Z,6.77
2023-02-09T17:33:00.234Z,6.76
2023-02-09T17:35:49.058Z,6.77
2023-02-09T17:38:22.670Z,6.77
2023-02-09T17:40:53.855Z,6.77
2023-02-09T17:43:20.884Z,6.75
2023-02-09T17:45:50.670Z,6.76
2023-02-09T17:48:18.854Z,6.77
2023-02-09T17:50:48.947Z,6.78
2023-02-09T17:53:21.789Z,6.82
2023-02-09T17:55:51.965Z,6.84
2023-02-09T17:58:18.574Z,6.85
2023-02-09T18:00:45.894Z,6.85
2023-02-09T18:03:18.406Z,6.82
2023-02-09T18:05:48.911Z,6.80
2023-02-09T18:08:15.560Z,6.77
2023-02-09T18:10:42.015Z,6.75
2023-02-09T18:13:15.861Z,6.73
2023-02-09T18:15:43.161Z,6.72
2023-02-09T18:18:09.975Z,6.69
2023-02-09T18:20:37.104Z,6.66
2023-02-09T18:23:04.917Z,6.62
2023-02-09T18:25:37.528Z,6.61
2023-02-09T18:28:06.406Z,6.56
2023-02-09T18:30:36.895Z,6.55
2023-02-09T18:33:05.042Z,6.55
2023-02-09T18:35:38.190Z,6.54
2023-02-09T18:38:07.756Z,6.54
2023-02-09T18:40:34.836Z,6.53
2023-02-09T18:43:03.088Z,6.56
2023-02-09T18:45:33.254Z,6.56
2023-02-09T18:48:00.433Z,6.54
2023-02-09T18:50:30.565Z,6.53
2023-02-09T18:53:00.231Z,6.52
2023-02-09T18:55:29.743Z,6.50
2023-02-09T18:58:01.765Z,6.49
2023-02-09T19:00:28.976Z,6.47
2023-02-09T19:02:57.924Z,6.43
2023-02-09T19:05:27.173Z,6.40
2023-02-09T19:07:55.316Z,6.34
2023-02-09T19:10:23.005Z,6.33
2023-02-09T19:12:49.678Z,6.31
2023-02-09T19:15:18.311Z,6.31
2023-02-09T19:17:46.192Z,6.29
2023-02-09T19:20:17.665Z,6.28
2023-02-09T19:22:44.736Z,6.24
2023-02-09T19:25:11.115Z,6.25
2023-02-09T19:27:37.602Z,6.23
2023-02-09T19:30:06.201Z,6.20
2023-02-09T19:32:32.782Z,6.20
2023-02-09T19:34:59.312Z,6.15
2023-02-09T19:37:25.793Z,6.13
2023-02-09T19:39:53.183Z,6.11
2023-02-09T19:42:21.658Z,6.08
2023-02-09T19:44:49.199Z,6.07
2023-02-09T19:47:15.948Z,6.04
2023-02-09T19:49:42.959Z,6.02
2023-02-09T19:52:09.568Z,5.99
2023-02-09T19:54:36.262Z,5.95
2023-02-09T19:57:05.686Z,5.84
2023-02-09T19:59:32.292Z,5.68
2023-02-09T20:01:58.839Z,5.66
2023-02-09T20:04:25.701Z,5.60
2023-02-09T20:06:52.579Z,5.53
2023-02-09T20:09:19.038Z,5.47
2023-02-09T20:11:46.759Z,5.43
2023-02-09T20:14:13.176Z,5.38
2023-02-09T20:16:40.212Z,5.33
2023-02-09T20:19:07.079Z,5.28
2023-02-09T20:21:33.664Z,5.25
2023-02-09T20:24:00.178Z,5.17
2023-02-09T20:26:29.472Z,5.16
2023-02-09T20:28:57.120Z,5.09
2023-02-09T20:31:27.039Z,5.03
2023-02-09T20:33:54.794Z,4.98
2023-02-09T20:36:23.785Z,4.89
2023-02-09T20:38:50.966Z,4.79
2023-02-09T20:41:18.235Z,4.76
2023-02-09T20:44:04.010Z,4.71
2023-02-09T20:46:44.761Z,4.69
2023-02-09T20:49:13.987Z,4.67
2023-02-09T20:51:40.613Z,4.65
2023-02-09T20:54:07.401Z,4.61
2023-02-09T20:56:34.204Z,4.58
2023-02-09T20:59:00.792Z,4.61
2023-02-09T21:01:27.507Z,4.65
2023-02-09T21:03:54.939Z,4.68
2023-02-09T21:06:25.503Z,4.71
2023-02-09T21:08:52.219Z,4.71
2023-02-09T21:11:18.809Z,4.63
2023-02-09T21:13:45.399Z,4.54
2023-02-09T21:16:20.060Z,4.52
2023-02-09T21:18:46.529Z,4.46
2023-02-09T21:21:17.878Z,4.41
2023-02-09T21:23:45.905Z,4.43
2023-02-09T21:26:15.694Z,4.41
2023-02-09T21:28:43.764Z,4.35
2023-02-09T21:31:16.879Z,4.27
2023-02-09T21:33:44.180Z,4.21
2023-02-09T21:36:10.928Z,4.16
2023-02-09T21:38:41.487Z,4.10
2023-02-09T21:41:33.114Z,4.10
2023-02-09T21:43:59.871Z,4.09
2023-02-09T21:46:28.117Z,4.07
2023-02-09T21:48:57.860Z,4.04
2023-02-09T21:51:24.761Z,3.96
2023-02-09T21:53:51.694Z,3.99
2023-02-09T21:56:27.399Z,4.01
2023-02-09T21:58:53.900Z,4.10
2023-02-09T22:01:20.318Z,4.14
2023-02-09T22:03:57.031Z,4.11
2023-02-09T22:06:29.437Z,4.06
2023-02-09T22:08:55.777Z,4.03
2023-02-09T22:11:22.204Z,3.99
2023-02-09T22:13:48.946Z,4.01
2023-02-09T22:16:20.647Z,4.07
2023-02-09T22:18:47.357Z,4.15
2023-02-09T22:21:14.307Z,4.22
2023-02-09T22:23:40.762Z,4.27
2023-02-09T22:26:07.486Z,4.34
2023-02-09T22:28:36.415Z,4.41
2023-02-09T22:31:08.034Z,4.39
2023-02-09T22:33:34.976Z,4.53
2023-02-09T22:36:07.002Z,4.47
2023-02-09T22:38:34.051Z,4.58
2023-02-09T22:41:21.123Z,4.58
2023-02-09T22:43:52.499Z,4.58
2023-02-09T22:46:20.646Z,4.59
2023-02-09T22:48:55.102Z,4.49
2023-02-09T22:51:22.644Z,4.58
2023-02-09T22:53:49.241Z,4.59
2023-02-09T22:56:17.823Z,4.57
2023-02-09T22:58:44.439Z,4.54
2023-02-09T23:01:11.207Z,4.54
2023-02-09T23:03:38.742Z,4.53
2023-02-09T23:06:07.788Z,4.51
2023-02-09T23:08:35.165Z,4.48
2023-02-09T23:11:06.544Z,4.47
2023-02-09T23:13:34.562Z,4.45
2023-02-09T23:16:21.889Z,4.45
2023-02-09T23:18:53.343Z,4.43
2023-02-09T23:21:21.981Z,4.43
2023-02-09T23:23:48.812Z,4.38
2023-02-09T23:26:17.102Z,4.39
2023-02-09T23:28:43.743Z,4.39
2023-02-09T23:31:21.907Z,4.38
2023-02-09T23:33:48.579Z,4.38
2023-02-09T23:36:18.020Z,4.36
2023-02-09T23:38:46.237Z,4.35
2023-02-09T23:41:16.705Z,4.37
2023-02-09T23:43:43.572Z,4.34
2023-02-09T23:46:17.148Z,4.34
2023-02-09T23:48:46.708Z,4.25
2023-02-09T23:51:26.527Z,4.35
2023-02-09T23:53:54.813Z,4.32
2023-02-09T23:56:22.036Z,4.33
2023-02-09T23:58:50.530Z,4.34
